This is the latest recevied weather packets stored in our database for station/object KM4KBD. If no packets are shown the sender has not sent any weather packets the latest 10 day(s).
| Time | Temp. | Humidity | Pressure | Rain* | Wind** | Luminosity | Snow |
|---|---|---|---|---|---|---|---|
| 1777348003 | 17.22° C | 91% | 1018.7 hPa | 0 mm | - | 0 W/m² | - |
| 1777347701 | 17.22° C | 90% | 1018.9 hPa | 0 mm | - | 0 W/m² | - |
| 1777347398 | 17.78° C | 87% | 1018.8 hPa | 4.83 mm | - | 0 W/m² | - |
| 1777347093 | 18.89° C | 82% | 1019.1 hPa | 4.83 mm | - | 0 W/m² | - |
| 1777346790 | 18.89° C | 78% | 1019.2 hPa | 0 mm | - | 0 W/m² | - |
| 1777346486 | 18.89° C | 79% | 1019.1 hPa | 1.27 mm | - | 0 W/m² | - |
| 1777346183 | 19.44° C | 77% | 1019.3 hPa | 1.27 mm | - | 0 W/m² | - |
| 1777345880 | 21.67° C | 64% | 1019.1 hPa | 1.78 mm | - | 0 W/m² | - |
| 1777345578 | 21.67° C | 66% | 1018.1 hPa | 1.78 mm | - | 0 W/m² | - |
| 1777345274 | 23.89° C | 52% | 1017.4 hPa | 0 mm | - | 0 W/m² | - |
| 1777344971 | 23.89° C | 52% | 1017.5 hPa | 0 mm | - | 0 W/m² | - |
| 1777344667 | 23.89° C | 51% | 1017.4 hPa | 0 mm | - | 0 W/m² | - |
| 1777344364 | 23.89° C | 51% | 1017.7 hPa | 0 mm | - | 0 W/m² | - |
| 1777344061 | 23.89° C | 51% | 1017.4 hPa | 0 mm | - | 0 W/m² | - |
| 1777343758 | 23.89° C | 51% | 1017.6 hPa | 0 mm | - | 0 W/m² | - |
| 1777343456 | 23.89° C | 50% | 1017.5 hPa | 0 mm | - | 0 W/m² | - |
| 1777343154 | 23.89° C | 51% | 1017.6 hPa | 0 mm | - | 0 W/m² | - |
| 1777342850 | 23.89° C | 51% | 1017.7 hPa | 0 mm | - | 0 W/m² | - |
| 1777342548 | 23.89° C | 51% | 1017.4 hPa | 0 mm | - | 0 W/m² | - |
| 1777342244 | 23.89° C | 52% | 1017.5 hPa | 0 mm | - | 0 W/m² | - |
| 1777341941 | 23.89° C | 53% | 1017.5 hPa | 0 mm | - | 0 W/m² | - |
| 1777341637 | 23.89° C | 53% | 1017.6 hPa | 0 mm | - | 0 W/m² | - |
| 1777341333 | 23.89° C | 53% | 1017.3 hPa | 0 mm | - | 0 W/m² | - |
| 1777340727 | 23.89° C | 51% | 1017.1 hPa | 0 mm | - | 0 W/m² | - |
| 1777340123 | 23.89° C | 51% | 1017.1 hPa | 0 mm | - | 0 W/m² | - |
* Rain latest hour (hover to see other rain measurements)
** Current wind speed in m/s (hover to see current wind gust speed)